Time;durP1;ratioP1;P1;durP2;ratioP2;P2;SDS_P1;SDS_P2;PMS_P1;PMS_P2;Temp;Humidity;BMP_temperature;BMP_pressure;BME280_temperature;BME280_humidity;BME280_pressure;Samples;Min_cycle;Max_cycle;Signal;HPM_P1;HPM_P2
2023/03/18 00:03:03;;;;;;;8.52;7.38;;;;;;;10.04;100.00;100656.38;10231667;28;20076;-74
2023/03/18 00:08:01;;;;;;;8.25;7.28;;;;;;;10.06;100.00;100649.47;10224536;28;20064;-74
2023/03/18 00:12:58;;;;;;;9.30;6.68;;;;;;;10.04;100.00;100651.72;10234331;28;20125;-74
2023/03/18 00:17:57;;;;;;;9.18;7.43;;;;;;;9.99;100.00;100645.59;10232665;28;20052;-74
2023/03/18 00:22:56;;;;;;;7.18;6.43;;;;;;;9.94;100.00;100651.22;10247278;28;20140;-74
2023/03/18 00:27:52;;;;;;;8.32;6.38;;;;;;;9.93;100.00;100650.38;10224590;28;20087;-75
2023/03/18 00:32:49;;;;;;;7.97;6.05;;;;;;;9.89;100.00;100644.78;10230693;28;20069;-74
2023/03/18 00:37:47;;;;;;;7.93;6.32;;;;;;;9.95;100.00;100641.91;10223830;28;20072;-74
2023/03/18 00:42:49;;;;;;;7.53;6.05;;;;;;;9.88;100.00;100643.13;10231777;28;20057;-72
2023/03/18 00:47:47;;;;;;;7.03;6.17;;;;;;;9.91;100.00;100644.47;10222138;28;20072;-74
2023/03/18 00:52:44;;;;;;;8.07;6.40;;;;;;;9.92;100.00;100642.53;10229753;28;20248;-72
2023/03/18 00:57:40;;;;;;;8.35;6.20;;;;;;;9.89;100.00;100644.78;10229717;28;20073;-73
2023/03/18 01:02:37;;;;;;;7.57;6.80;;;;;;;9.87;100.00;100657.94;10226105;28;20037;-74
2023/03/18 01:07:35;;;;;;;7.53;6.25;;;;;;;9.82;100.00;100665.47;10227728;28;20080;-73
2023/03/18 01:12:32;;;;;;;10.85;6.05;;;;;;;9.76;100.00;100667.50;10233400;28;20112;-72
2023/03/18 01:17:28;;;;;;;7.72;5.95;;;;;;;9.77;100.00;100669.13;10226142;28;20049;-73
2023/03/18 01:22:26;;;;;;;8.18;5.72;;;;;;;9.78;100.00;100665.28;10225323;28;20043;-74
2023/03/18 01:27:23;;;;;;;6.45;5.85;;;;;;;9.73;100.00;100662.69;10221201;28;20122;-74
2023/03/18 01:32:20;;;;;;;10.38;6.00;;;;;;;9.72;100.00;100661.06;10223304;28;20052;-71
2023/03/18 01:37:18;;;;;;;7.00;6.30;;;;;;;9.74;100.00;100669.75;10228067;28;20057;-73
2023/03/18 01:42:17;;;;;;;7.40;6.25;;;;;;;9.73;100.00;100668.16;10234039;28;20065;-73
2023/03/18 01:47:16;;;;;;;7.45;6.43;;;;;;;9.81;100.00;100664.63;10221157;28;20083;-73
2023/03/18 01:52:17;;;;;;;8.68;6.88;;;;;;;9.81;100.00;100659.19;10231542;28;20041;-74
2023/03/18 01:57:16;;;;;;;7.65;6.25;;;;;;;9.83;100.00;100667.06;10225420;28;20052;-73
2023/03/18 02:02:15;;;;;;;6.95;5.82;;;;;;;9.77;100.00;100669.13;10228267;28;20049;-76
2023/03/18 02:07:27;;;;;;;6.65;5.65;;;;;;;9.76;100.00;100672.97;10223862;28;20050;-75
2023/03/18 02:12:30;;;;;;;7.55;5.72;;;;;;;9.68;100.00;100681.94;10225842;28;20041;-71
2023/03/18 02:17:30;;;;;;;7.70;6.90;;;;;;;9.65;100.00;100682.53;10225518;28;20438;-72
2023/03/18 02:22:38;;;;;;;8.15;6.35;;;;;;;9.73;100.00;100684.53;10221749;28;20065;-71
2023/03/18 02:27:38;;;;;;;9.27;6.35;;;;;;;9.65;100.00;100690.72;10223682;28;20515;-72
2023/03/18 02:32:36;;;;;;;7.38;6.03;;;;;;;9.74;100.00;100698.97;10220325;28;20088;-71
2023/03/18 02:37:33;;;;;;;7.85;5.93;;;;;;;9.76;100.00;100694.81;10225173;28;20439;-71
2023/03/18 02:42:30;;;;;;;7.80;6.65;;;;;;;9.77;100.00;100701.91;10226115;28;20073;-71
2023/03/18 02:47:30;;;;;;;7.95;6.05;;;;;;;9.78;100.00;100703.50;10222475;28;20042;-75
2023/03/18 02:52:26;;;;;;;8.18;6.50;;;;;;;9.79;100.00;100696.09;10225110;28;20065;-77
2023/03/18 02:57:32;;;;;;;9.15;7.15;;;;;;;9.76;100.00;100699.47;10225787;28;20078;-72
2023/03/18 03:02:29;;;;;;;7.90;7.10;;;;;;;9.78;100.00;100702.69;10225248;28;20033;-76
2023/03/18 03:07:26;;;;;;;8.75;6.80;;;;;;;9.76;100.00;100700.28;10232407;28;20037;-75
2023/03/18 03:12:23;;;;;;;8.50;6.68;;;;;;;9.74;100.00;100707.97;10235799;28;20076;-74
2023/03/18 03:17:20;;;;;;;8.30;7.40;;;;;;;9.72;100.00;100710.19;10229604;28;20038;-75
2023/03/18 03:22:17;;;;;;;7.80;6.85;;;;;;;9.61;100.00;100714.34;10237164;28;20690;-75
2023/03/18 03:27:14;;;;;;;8.00;7.20;;;;;;;9.67;100.00;100718.53;10234361;28;20107;-75
2023/03/18 03:32:10;;;;;;;8.13;6.90;;;;;;;9.54;100.00;100728.41;10233932;28;20047;-76
2023/03/18 03:37:07;;;;;;;10.00;6.43;;;;;;;9.45;100.00;100731.06;10230241;28;20050;-75
2023/03/18 03:42:04;;;;;;;8.20;7.40;;;;;;;9.38;100.00;100732.63;10232737;28;20061;-73
2023/03/18 03:47:01;;;;;;;8.32;6.93;;;;;;;9.36;100.00;100735.66;10230474;28;20146;-73
2023/03/18 03:51:58;;;;;;;8.05;7.25;;;;;;;9.36;100.00;100730.19;10233556;28;20052;-73
2023/03/18 03:56:54;;;;;;;13.80;7.70;;;;;;;9.37;100.00;100715.44;10230917;28;20054;-75
2023/03/18 04:01:51;;;;;;;9.13;7.03;;;;;;;9.42;100.00;100720.78;10237042;28;20045;-73
2023/03/18 04:06:48;;;;;;;7.68;6.88;;;;;;;9.36;100.00;100722.00;10236169;28;20063;-74
2023/03/18 04:11:44;;;;;;;10.23;7.70;;;;;;;9.34;100.00;100737.88;10232711;28;20037;-73
2023/03/18 04:16:41;;;;;;;9.55;6.60;;;;;;;9.31;100.00;100743.97;10232053;28;20065;-75
2023/03/18 04:21:38;;;;;;;8.40;6.30;;;;;;;9.30;100.00;100747.78;10233557;28;20068;-72
2023/03/18 04:26:34;;;;;;;7.80;7.00;;;;;;;9.32;100.00;100751.03;10233761;28;20067;-72
2023/03/18 04:31:31;;;;;;;7.07;6.43;;;;;;;9.28;100.00;100744.56;10233860;28;20522;-72
2023/03/18 04:36:28;;;;;;;9.70;7.00;;;;;;;9.22;100.00;100756.72;10231496;28;20075;-72
2023/03/18 04:41:25;;;;;;;7.68;6.88;;;;;;;9.23;100.00;100747.41;10222102;28;20052;-73
2023/03/18 04:46:22;;;;;;;12.18;7.60;;;;;;;9.26;100.00;100757.72;10230917;28;20065;-73
2023/03/18 04:51:19;;;;;;;10.40;7.47;;;;;;;9.28;100.00;100747.28;10230925;28;20076;-73
2023/03/18 04:56:16;;;;;;;8.73;7.90;;;;;;;9.30;100.00;100747.78;10239792;28;20049;-73
2023/03/18 05:01:13;;;;;;;10.35;8.32;;;;;;;9.22;100.00;100768.44;10234106;28;20053;-73
2023/03/18 05:06:20;;;;;;;8.75;7.82;;;;;;;9.17;100.00;100781.41;10231402;28;20053;-74
2023/03/18 05:11:18;;;;;;;11.82;8.80;;;;;;;9.26;100.00;100777.63;10227816;28;20048;-74
2023/03/18 05:16:15;;;;;;;10.77;8.50;;;;;;;9.34;100.00;100787.00;10228651;28;20045;-74
2023/03/18 05:21:11;;;;;;;9.93;8.73;;;;;;;9.30;100.00;100780.53;10225093;28;20419;-73
2023/03/18 05:26:10;;;;;;;9.90;8.90;;;;;;;9.26;100.00;100771.38;10230269;28;20041;-74
2023/03/18 05:31:07;;;;;;;11.98;9.60;;;;;;;9.31;100.00;100776.72;10228590;28;20056;-74
2023/03/18 05:36:03;;;;;;;10.43;9.32;;;;;;;9.31;100.00;100784.91;10223281;28;20041;-73
2023/03/18 05:41:00;;;;;;;13.95;11.63;;;;;;;9.33;100.00;100784.56;10222412;28;20100;-75
2023/03/18 05:45:57;;;;;;;13.07;10.13;;;;;;;9.35;100.00;100796.81;10223724;28;20058;-73
2023/03/18 05:50:54;;;;;;;12.02;10.82;;;;;;;9.34;100.00;100805.31;10207614;28;20069;-73
2023/03/18 05:55:50;;;;;;;16.23;10.38;;;;;;;9.42;100.00;100810.84;10206051;28;20068;-72
2023/03/18 06:00:47;;;;;;;13.27;11.20;;;;;;;9.45;100.00;100807.50;10203718;28;20042;-73
2023/03/18 06:05:43;;;;;;;16.52;11.57;;;;;;;9.53;100.00;100816.06;10207697;28;20104;-73
2023/03/18 06:10:40;;;;;;;15.48;11.85;;;;;;;9.54;100.00;100823.13;10213675;28;20041;-76
2023/03/18 06:15:37;;;;;;;12.07;10.77;;;;;;;9.53;100.00;100832.44;10217487;28;20068;-76
2023/03/18 06:20:34;;;;;;;15.38;11.88;;;;;;;9.54;100.00;100831.31;10218460;28;20045;-76
2023/03/18 06:25:30;;;;;;;17.10;12.20;;;;;;;9.56;100.00;100826.34;10224223;28;20048;-76
2023/03/18 06:30:28;;;;;;;17.45;12.73;;;;;;;9.62;100.00;100819.66;10224774;28;20041;-73
2023/03/18 06:35:27;;;;;;;16.30;13.32;;;;;;;9.65;100.00;100830.78;10224586;28;20043;-74
2023/03/18 06:40:24;;;;;;;19.83;13.45;;;;;;;9.63;100.00;100843.09;10223569;28;20048;-73
2023/03/18 06:45:21;;;;;;;19.52;13.85;;;;;;;9.74;100.00;100833.56;10234547;28;20068;-74
2023/03/18 06:50:19;;;;;;;14.02;12.40;;;;;;;9.80;100.00;100843.25;10227929;28;20050;-74
2023/03/18 06:55:16;;;;;;;14.30;11.50;;;;;;;9.87;100.00;100838.16;10227875;28;20056;-72
2023/03/18 07:00:13;;;;;;;17.83;13.98;;;;;;;9.97;100.00;100841.78;10231645;28;20080;-72
2023/03/18 07:05:11;;;;;;;15.65;11.88;;;;;;;10.12;100.00;100860.53;10234340;28;20042;-73
2023/03/18 07:10:15;;;;;;;17.63;14.27;;;;;;;10.22;100.00;100864.94;10232743;28;20103;-73
2023/03/18 07:15:12;;;;;;;14.57;12.38;;;;;;;10.27;100.00;100865.59;10228896;28;20046;-75
2023/03/18 07:20:09;;;;;;;22.10;12.98;;;;;;;10.33;100.00;100871.78;10230969;28;20056;-75
2023/03/18 07:25:07;;;;;;;18.73;14.15;;;;;;;10.38;100.00;100873.59;10230976;28;20454;-75
2023/03/18 07:30:04;;;;;;;18.92;12.65;;;;;;;10.50;100.00;100873.81;10233804;28;20488;-75
2023/03/18 07:35:03;;;;;;;16.95;13.68;;;;;;;10.62;100.00;100878.69;10225419;28;20428;-73
2023/03/18 07:40:00;;;;;;;19.02;13.15;;;;;;;10.65;100.00;100889.81;10223937;28;20107;-74
2023/03/18 07:44:56;;;;;;;17.25;12.40;;;;;;;10.74;100.00;100898.88;10233536;28;20140;-71
2023/03/18 07:49:53;;;;;;;18.75;12.32;;;;;;;10.78;100.00;100901.78;10229709;28;20503;-71
2023/03/18 07:54:49;;;;;;;17.27;12.63;;;;;;;10.77;100.00;100896.59;10220593;28;20106;-72
2023/03/18 07:59:46;;;;;;;17.48;13.07;;;;;;;10.76;100.00;100895.00;10224996;28;20057;-73
2023/03/18 08:04:45;;;;;;;17.73;12.70;;;;;;;10.85;100.00;100906.78;10222544;28;20042;-72
2023/03/18 08:09:42;;;;;;;17.33;12.60;;;;;;;10.83;100.00;100900.84;10224340;28;20049;-72
2023/03/18 08:14:38;;;;;;;17.15;12.55;;;;;;;10.84;100.00;100907.94;10226307;28;20132;-76
2023/03/18 08:19:35;;;;;;;22.65;12.85;;;;;;;10.84;100.00;100914.19;10214246;28;20038;-76
2023/03/18 08:24:33;;;;;;;16.00;12.73;;;;;;;10.92;100.00;100926.28;10228784;28;20044;-77
2023/03/18 08:29:31;;;;;;;15.07;12.40;;;;;;;10.93;100.00;100926.00;10223484;28;20083;-76
2023/03/18 08:34:28;;;;;;;16.33;13.13;;;;;;;10.91;100.00;100927.44;10217853;28;20050;-76
2023/03/18 08:39:25;;;;;;;17.20;12.52;;;;;;;10.85;100.00;100943.16;10226135;28;20069;-75
2023/03/18 08:44:22;;;;;;;17.02;13.18;;;;;;;10.85;100.00;100939.63;10223057;28;20048;-75
2023/03/18 08:49:18;;;;;;;15.20;13.25;;;;;;;10.83;100.00;100955.53;10219794;28;20136;-76
2023/03/18 08:54:15;;;;;;;15.93;13.35;;;;;;;10.83;100.00;100971.94;10233643;28;20111;-72
2023/03/18 08:59:12;;;;;;;18.00;13.30;;;;;;;10.80;100.00;100973.38;10222117;28;20107;-71
2023/03/18 09:04:08;;;;;;;17.42;12.98;;;;;;;10.71;100.00;100981.53;10227812;28;20132;-71
2023/03/18 09:09:05;;;;;;;18.70;13.40;;;;;;;10.82;100.00;100986.75;10227885;28;20053;-71
2023/03/18 09:14:02;;;;;;;20.42;12.85;;;;;;;10.97;100.00;100989.09;10222588;28;20064;-72
2023/03/18 09:18:58;;;;;;;16.40;12.98;;;;;;;10.83;100.00;100999.31;10228520;28;20057;-72
2023/03/18 09:23:55;;;;;;;18.63;13.05;;;;;;;10.85;100.00;100997.06;10229141;28;20045;-72
2023/03/18 09:28:52;;;;;;;16.80;13.43;;;;;;;10.77;100.00;101011.47;10221104;28;20056;-71
2023/03/18 09:33:48;;;;;;;18.20;14.18;;;;;;;10.73;100.00;101017.59;10227048;28;20053;-71
2023/03/18 09:38:45;;;;;;;20.02;14.50;;;;;;;10.76;100.00;101023.56;10235587;28;20044;-72
2023/03/18 09:43:53;;;;;;;20.55;13.90;;;;;;;10.82;100.00;101019.59;10230552;28;20606;-72
2023/03/18 09:49:44;;;;;;;16.65;13.73;;;;;;;10.83;100.00;101021.97;10218250;28;20052;-71
2023/03/18 09:54:48;;;;;;;17.05;12.95;;;;;;;10.90;100.00;101021.53;10164424;28;20046;-71
2023/03/18 09:59:59;;;;;;;20.02;13.82;;;;;;;11.06;100.00;101020.03;10230604;28;20061;-72
2023/03/18 10:05:02;;;;;;;16.98;13.07;;;;;;;11.23;100.00;101027.53;10216784;28;20075;-73
2023/03/18 10:10:08;;;;;;;23.50;14.52;;;;;;;11.32;100.00;101027.56;10214456;28;20100;-73
2023/03/18 10:15:25;;;;;;;16.02;12.45;;;;;;;11.68;100.00;101023.84;10218513;28;20056;-72
2023/03/18 10:20:36;;;;;;;18.85;12.88;;;;;;;12.41;100.00;101021.41;10219174;28;20053;-73
2023/03/18 10:25:44;;;;;;;14.48;12.48;;;;;;;12.63;100.00;101028.66;10222259;28;20511;-73
2023/03/18 10:31:13;;;;;;;16.35;12.15;;;;;;;12.14;100.00;101026.06;10221314;28;20041;-73
2023/03/18 10:36:12;;;;;;;14.73;12.68;;;;;;;12.22;100.00;101027.19;10217521;28;20049;-73
2023/03/18 10:41:16;;;;;;;14.93;12.63;;;;;;;12.34;100.00;101030.09;10216058;28;20049;-74
2023/03/18 10:46:14;;;;;;;15.40;11.88;;;;;;;12.43;100.00;101033.66;10218859;28;20570;-73
2023/03/18 10:51:30;;;;;;;17.42;12.70;;;;;;;12.57;100.00;101032.69;10218592;28;20048;-73
2023/03/18 10:56:27;;;;;;;19.40;13.18;;;;;;;12.58;100.00;101034.31;10226879;28;20515;-73
2023/03/18 11:01:27;;;;;;;15.93;13.07;;;;;;;12.97;100.00;101032.47;10232548;28;20053;-73
2023/03/18 11:06:40;;;;;;;17.17;14.15;;;;;;;12.99;100.00;101032.97;10226238;28;20096;-73
2023/03/18 11:11:42;;;;;;;15.50;12.95;;;;;;;13.22;100.00;101037.09;10229291;28;20050;-73
2023/03/18 11:16:51;;;;;;;16.70;13.07;;;;;;;13.45;100.00;101034.94;10221102;28;20065;-74
2023/03/18 11:21:48;;;;;;;16.65;12.93;;;;;;;13.77;100.00;101029.16;10219571;28;20412;-74
2023/03/18 11:26:53;;;;;;;13.43;12.00;;;;;;;14.62;100.00;101041.81;10226974;28;20072;-73
2023/03/18 11:31:57;;;;;;;15.88;12.25;;;;;;;14.65;100.00;101030.97;10232994;28;20057;-73
2023/03/18 11:37:03;;;;;;;18.25;13.02;;;;;;;15.86;100.00;101013.38;10230531;28;20068;-74
2023/03/18 11:42:00;;;;;;;13.85;11.48;;;;;;;15.68;100.00;101013.59;10226417;28;20059;-73
2023/03/18 11:47:21;;;;;;;13.30;11.85;;;;;;;16.03;100.00;101006.81;10227997;28;20537;-74
2023/03/18 11:52:45;;;;;;;11.98;10.80;;;;;;;15.54;100.00;101007.63;10233428;28;20056;-73
2023/03/18 11:58:05;;;;;;;23.85;12.25;;;;;;;15.88;100.00;101008.31;10234972;28;20499;-72
2023/03/18 12:03:50;;;;;;;17.17;12.15;;;;;;;15.64;100.00;101007.19;10238517;28;20092;-73
2023/03/18 12:09:02;;;;;;;15.57;11.82;;;;;;;16.97;100.00;101006.34;10226669;28;20057;-73
2023/03/18 12:14:19;;;;;;;14.20;12.57;;;;;;;17.81;100.00;100985.91;10235607;28;20041;-73
2023/03/18 12:19:43;;;;;;;13.80;12.07;;;;;;;18.21;100.00;100998.63;10239205;28;20153;-73
2023/03/18 12:25:01;;;;;;;13.05;11.60;;;;;;;19.19;100.00;101006.88;10230662;28;20045;-72
2023/03/18 12:30:28;;;;;;;16.50;12.35;;;;;;;19.17;100.00;101014.75;10229424;28;20483;-73
2023/03/18 12:35:43;;;;;;;11.60;10.60;;;;;;;20.64;100.00;101006.63;10231402;28;20047;-72
2023/03/18 12:41:02;;;;;;;11.25;10.02;;;;;;;21.79;100.00;101018.78;10226548;28;20048;-72
2023/03/18 12:46:09;;;;;;;13.38;10.00;;;;;;;21.67;100.00;101033.03;10237524;28;20079;-72
2023/03/18 12:51:11;;;;;;;10.75;9.65;;;;;;;21.32;100.00;101017.63;10225555;28;20457;-73
2023/03/18 12:56:15;;;;;;;11.82;10.60;;;;;;;21.59;100.00;101016.28;10226761;28;20472;-74
2023/03/18 13:01:16;;;;;;;13.23;10.55;;;;;;;22.28;100.00;101020.31;10232850;28;20076;-74
2023/03/18 13:06:19;;;;;;;11.45;10.35;;;;;;;21.40;100.00;101024.88;10231751;28;20517;-73
2023/03/18 13:11:31;;;;;;;10.93;9.63;;;;;;;22.50;100.00;101012.03;10227747;28;20062;-73
2023/03/18 13:16:30;;;;;;;11.40;10.30;;;;;;;19.25;100.00;101022.03;10228369;28;20049;-74
2023/03/18 13:21:29;;;;;;;11.18;10.10;;;;;;;18.39;100.00;101020.38;10232701;28;20689;-74
2023/03/18 13:26:28;;;;;;;11.93;10.52;;;;;;;17.23;100.00;101016.09;10227949;28;20053;-74
2023/03/18 13:31:51;;;;;;;11.63;10.50;;;;;;;16.58;100.00;101014.34;10229285;28;20129;-74
2023/03/18 13:37:27;;;;;;;13.15;11.05;;;;;;;16.75;100.00;101006.88;10203498;28;20074;-73
2023/03/18 13:42:36;;;;;;;13.40;12.00;;;;;;;17.75;100.00;101008.66;10220599;28;20562;-73
2023/03/18 13:47:36;;;;;;;13.48;11.25;;;;;;;19.99;100.00;101004.19;10220282;28;20041;-73
2023/03/18 13:52:39;;;;;;;12.50;11.20;;;;;;;17.45;100.00;101018.25;10228239;28;20499;-72
2023/03/18 13:57:45;;;;;;;;;;;;;;;16.54;100.00;101018.94;10224468;28;20132;-72
2023/03/18 14:02:44;;;;;;;13.50;11.25;;;;;;;16.28;100.00;101010.31;10230553;28;19928;-73
2023/03/18 14:07:48;;;;;;;14.13;12.38;;;;;;;15.87;100.00;101012.22;10213276;28;20478;-73
2023/03/18 14:12:46;;;;;;;14.98;13.38;;;;;;;15.84;100.00;101010.16;10229129;28;20041;-73
2023/03/18 14:17:54;;;;;;;16.23;13.43;;;;;;;15.99;100.00;101009.47;10222187;28;20120;-73
2023/03/18 14:22:53;;;;;;;16.10;13.73;;;;;;;18.00;100.00;101009.25;10225791;28;20037;-73
2023/03/18 14:27:56;;;;;;;14.38;12.43;;;;;;;17.07;100.00;101007.00;10225286;28;20395;-74
2023/03/18 14:32:56;;;;;;;;;;;;;;;16.61;100.00;101013.63;10224058;28;20523;-74
2023/03/18 14:38:07;;;;;;;17.70;15.27;;;;;;;16.10;100.00;101010.56;10226585;28;20397;-74
2023/03/18 14:43:14;;;;;;;17.90;14.25;;;;;;;15.87;100.00;101007.50;10220354;28;20041;-74
2023/03/18 14:48:16;;;;;;;17.88;13.90;;;;;;;15.77;100.00;101014.28;10221847;28;20128;-73
2023/03/18 14:53:23;;;;;;;16.25;14.05;;;;;;;15.58;100.00;101008.53;10227714;28;20046;-74
2023/03/18 14:58:21;;;;;;;18.70;15.07;;;;;;;15.74;100.00;101003.16;10220869;28;20044;-74
2023/03/18 15:03:24;;;;;;;17.05;13.52;;;;;;;15.63;100.00;101005.56;10225527;28;20090;-74
2023/03/18 15:08:25;;;;;;;16.17;12.82;;;;;;;17.52;100.00;101011.25;10227121;28;20132;-73
2023/03/18 15:13:29;;;;;;;14.77;13.02;;;;;;;16.78;100.00;101011.72;10233520;28;20054;-74
2023/03/18 15:18:33;;;;;;;18.42;13.23;;;;;;;16.20;100.00;101004.59;10228141;28;20050;-74
2023/03/18 15:23:33;;;;;;;15.93;12.95;;;;;;;15.90;100.00;101012.34;10232621;28;20072;-74
2023/03/18 15:28:31;;;;;;;16.00;12.52;;;;;;;15.84;100.00;101015.69;10235865;28;20037;-74
2023/03/18 15:33:36;;;;;;;17.63;12.73;;;;;;;15.86;100.00;101016.13;10229012;28;20073;-74
2023/03/18 15:38:33;;;;;;;13.70;11.57;;;;;;;15.80;100.00;101018.31;10228357;28;20549;-74
2023/03/18 15:43:34;;;;;;;12.88;11.55;;;;;;;15.34;100.00;101029.44;10226199;28;20072;-74
2023/03/18 15:48:38;;;;;;;12.90;10.95;;;;;;;15.10;100.00;101021.09;10229311;28;20045;-74
2023/03/18 15:53:46;;;;;;;14.57;11.05;;;;;;;15.26;100.00;101019.31;10220357;28;20042;-75
2023/03/18 15:58:43;;;;;;;16.38;10.98;;;;;;;16.38;100.00;101020.84;10231302;28;20041;-74
2023/03/18 16:03:41;;;;;;;19.00;11.65;;;;;;;16.12;100.00;101027.56;10220836;28;20041;-74
2023/03/18 16:08:37;;;;;;;13.40;11.02;;;;;;;15.92;100.00;101025.75;10230874;28;20047;-74
2023/03/18 16:13:35;;;;;;;17.35;12.02;;;;;;;17.14;100.00;101029.28;10227804;28;20408;-74
2023/03/18 16:18:31;;;;;;;16.92;12.60;;;;;;;16.57;100.00;101034.81;10233664;28;20089;-75
2023/03/18 16:23:28;;;;;;;16.45;12.57;;;;;;;17.46;100.00;101030.88;10232213;28;20116;-74
2023/03/18 16:28:27;;;;;;;14.05;11.70;;;;;;;17.13;100.00;101028.47;10232172;28;20045;-74
2023/03/18 16:33:23;;;;;;;15.82;12.02;;;;;;;16.43;100.00;101031.66;10223821;28;20046;-74
2023/03/18 16:38:20;;;;;;;19.23;12.00;;;;;;;15.95;100.00;101031.41;10230353;28;20523;-74
2023/03/18 16:43:20;;;;;;;14.02;11.35;;;;;;;15.74;100.00;101039.00;10226309;28;20049;-74
2023/03/18 16:48:20;;;;;;;16.52;12.15;;;;;;;15.43;100.00;101047.78;10224274;28;20151;-74
2023/03/18 16:53:28;;;;;;;16.02;11.77;;;;;;;14.86;100.00;101052.94;10228466;28;20042;-74
2023/03/18 16:58:29;;;;;;;18.17;14.20;;;;;;;14.85;100.00;101048.59;10225582;28;20046;-74
2023/03/18 17:03:25;;;;;;;19.80;12.50;;;;;;;14.76;100.00;101050.63;10225567;28;20053;-74
2023/03/18 17:08:22;;;;;;;15.68;12.95;;;;;;;14.46;100.00;101052.63;10225164;28;20045;-74
2023/03/18 17:13:31;;;;;;;16.65;13.35;;;;;;;14.33;100.00;101051.75;10219544;28;20212;-73
2023/03/18 17:18:27;;;;;;;20.88;13.07;;;;;;;14.20;100.00;101058.31;10229255;28;20092;-73
2023/03/18 17:23:26;;;;;;;14.98;12.23;;;;;;;13.96;100.00;101076.25;10224254;28;20049;-74
2023/03/18 17:28:31;;;;;;;19.35;12.65;;;;;;;13.74;100.00;101074.59;10225086;28;22172;-74
2023/03/18 17:33:30;;;;;;;17.52;12.93;;;;;;;13.52;100.00;101070.13;10222170;28;20101;-74
2023/03/18 17:38:27;;;;;;;14.07;12.68;;;;;;;13.34;100.00;101085.88;10225812;28;20053;-73
2023/03/18 17:43:27;;;;;;;17.60;12.93;;;;;;;13.21;100.00;101095.91;10227578;28;20095;-73
2023/03/18 17:48:26;;;;;;;15.73;13.20;;;;;;;13.10;100.00;101100.09;10219015;28;20053;-74
2023/03/18 17:53:25;;;;;;;16.75;13.88;;;;;;;13.03;100.00;101099.81;10231675;28;20042;-72
2023/03/18 17:58:24;;;;;;;15.85;14.15;;;;;;;12.93;100.00;101105.63;10227140;28;20053;-72
2023/03/18 18:03:21;;;;;;;17.30;13.25;;;;;;;12.83;100.00;101107.56;10219589;28;20047;-73
2023/03/18 18:08:19;;;;;;;22.77;14.10;;;;;;;12.73;100.00;101102.41;10220470;28;20065;-73
2023/03/18 18:13:21;;;;;;;16.08;13.60;;;;;;;12.63;100.00;101108.22;10225072;28;20049;-73
2023/03/18 18:18:24;;;;;;;;;;;;;;;12.56;100.00;101113.38;10227815;28;20045;-73
2023/03/18 18:23:27;;;;;;;16.63;13.65;;;;;;;12.45;100.00;101123.03;10224886;28;19925;-73
2023/03/18 18:28:30;;;;;;;18.10;13.90;;;;;;;12.41;100.00;101118.19;10225533;28;20051;-73
2023/03/18 18:33:27;;;;;;;16.67;14.80;;;;;;;12.42;100.00;101130.78;10228967;28;20049;-73
2023/03/18 18:38:27;;;;;;;16.92;13.95;;;;;;;12.46;100.00;101135.59;10231908;28;20076;-74
2023/03/18 18:43:24;;;;;;;21.05;15.13;;;;;;;12.51;100.00;101135.44;10234869;28;20057;-73
2023/03/18 18:48:29;;;;;;;22.42;15.02;;;;;;;12.41;100.00;101145.59;10233917;28;20068;-73
2023/03/18 18:53:29;;;;;;;17.23;13.52;;;;;;;12.38;100.00;101151.72;10226106;28;20041;-73
2023/03/18 18:58:31;;;;;;;21.00;15.35;;;;;;;12.28;100.00;101151.25;10225768;28;20053;-74
2023/03/18 19:03:32;;;;;;;19.35;15.05;;;;;;;12.26;100.00;101153.50;10231398;28;20038;-73
2023/03/18 19:08:33;;;;;;;17.33;14.63;;;;;;;12.34;100.00;101161.72;10228117;28;20053;-73
2023/03/18 19:13:32;;;;;;;19.63;14.90;;;;;;;12.37;100.00;101160.25;10227775;28;20050;-73
2023/03/18 19:18:36;;;;;;;17.50;14.65;;;;;;;12.38;100.00;101162.69;10225712;28;20060;-74
2023/03/18 19:23:34;;;;;;;18.40;15.13;;;;;;;12.41;100.00;101145.59;10227362;28;20042;-74
2023/03/18 19:33:55;;;;;;;21.42;16.48;;;;;;;12.25;100.00;101138.94;10234832;28;20046;-74
2023/03/18 19:38:53;;;;;;;18.33;15.10;;;;;;;12.09;100.00;101143.25;10229056;28;20056;-74
2023/03/18 19:43:50;;;;;;;19.80;15.68;;;;;;;11.94;100.00;101142.56;10224621;28;20061;-74
2023/03/18 19:48:47;;;;;;;21.38;16.20;;;;;;;11.83;100.00;101152.16;10229668;28;20045;-74
2023/03/18 19:53:45;;;;;;;18.60;14.20;;;;;;;11.61;100.00;101149.50;10229788;28;20065;-74
2023/03/18 19:58:42;;;;;;;17.73;14.45;;;;;;;11.45;100.00;101151.81;10227526;28;20525;-74
2023/03/18 20:03:38;;;;;;;17.65;15.20;;;;;;;11.31;100.00;101157.34;10226296;28;20049;-74
2023/03/18 20:08:36;;;;;;;19.02;14.48;;;;;;;11.22;100.00;101165.50;10224274;28;20056;-74
2023/03/18 20:13:32;;;;;;;18.23;14.43;;;;;;;11.19;100.00;101165.34;10223565;28;20060;-74
2023/03/18 20:18:32;;;;;;;18.60;14.13;;;;;;;11.16;100.00;101177.69;10223597;28;20051;-74
2023/03/18 20:23:29;;;;;;;18.55;15.13;;;;;;;11.20;100.00;101172.41;10228676;28;20068;-74
2023/03/18 20:28:26;;;;;;;18.45;14.98;;;;;;;11.25;100.00;101180.50;10229431;28;20073;-74
2023/03/18 20:33:23;;;;;;;23.00;14.68;;;;;;;11.32;100.00;101197.28;10224500;28;20074;-74
2023/03/18 20:38:31;;;;;;;18.70;14.90;;;;;;;11.40;100.00;101199.28;10225895;28;20045;-74
2023/03/18 20:43:29;;;;;;;20.23;14.82;;;;;;;11.43;100.00;101198.66;10223086;28;20133;-75
2023/03/18 20:48:26;;;;;;;22.65;16.08;;;;;;;11.51;100.00;101203.41;10226656;28;20073;-74
2023/03/18 20:53:26;;;;;;;21.10;14.52;;;;;;;11.51;100.00;101200.66;10226487;28;20054;-74
2023/03/18 20:58:27;;;;;;;20.15;15.52;;;;;;;11.55;100.00;101206.31;10241729;28;20065;-74
2023/03/18 21:03:29;;;;;;;20.27;15.80;;;;;;;11.50;100.00;101204.50;10224784;28;20109;-74
2023/03/18 21:08:27;;;;;;;20.67;15.85;;;;;;;11.56;100.00;101197.00;10221303;28;20048;-73
2023/03/18 21:13:37;;;;;;;25.73;15.98;;;;;;;11.58;100.00;101200.22;10232254;28;20056;-74
2023/03/18 21:18:35;;;;;;;19.42;14.80;;;;;;;11.63;100.00;101202.00;10228233;28;20046;-74
2023/03/18 21:23:33;;;;;;;17.15;13.55;;;;;;;11.67;100.00;101192.03;10225985;28;20045;-74
2023/03/18 21:28:30;;;;;;;18.00;13.70;;;;;;;11.70;100.00;101180.47;10222326;28;20068;-74
2023/03/18 21:33:32;;;;;;;15.15;13.05;;;;;;;11.66;100.00;101184.97;10217932;28;20149;-74
2023/03/18 21:38:30;;;;;;;22.33;14.13;;;;;;;11.62;100.00;101178.47;10226278;28;20088;-74
2023/03/18 21:43:39;;;;;;;17.88;13.60;;;;;;;11.54;100.00;101178.13;10222445;28;20048;-74
2023/03/18 21:48:35;;;;;;;16.38;12.75;;;;;;;11.49;100.00;101181.00;10231342;28;20110;-74
2023/03/18 21:53:32;;;;;;;14.65;12.13;;;;;;;11.43;100.00;101182.22;10226270;28;20052;-74
2023/03/18 21:58:30;;;;;;;13.80;12.23;;;;;;;11.35;100.00;101180.25;10231180;28;20056;-74
2023/03/18 22:03:29;;;;;;;14.95;12.40;;;;;;;11.34;100.00;101173.94;10233138;28;20084;-73
2023/03/18 22:08:26;;;;;;;19.92;13.32;;;;;;;11.32;100.00;101169.91;10227051;28;20053;-74
2023/03/18 22:13:25;;;;;;;18.17;13.05;;;;;;;11.24;100.00;101178.88;10223823;28;20049;-74
2023/03/18 22:18:24;;;;;;;18.05;14.13;;;;;;;11.07;100.00;101174.91;10223165;28;20045;-74
2023/03/18 22:23:28;;;;;;;17.75;13.50;;;;;;;10.97;100.00;101177.84;10219840;28;20522;-73
2023/03/18 22:28:31;;;;;;;17.80;15.32;;;;;;;10.87;100.00;101175.38;10228059;28;20038;-74
2023/03/18 22:33:32;;;;;;;17.95;13.70;;;;;;;10.76;100.00;101160.31;10223039;28;20128;-74